Herat, Afghanistan

4:43 PM AFT on August 31, 2015 (GMT +0430)
Herat | | Change Station
CLOSE
Current Station
Airport
Location: Herat,
Elevation: 3163 ft
Nearby Weather Stations

Elev 3163 ft 34.21 °N, 62.23 °E | Updated 18 minutes ago

Clear
Clear
86 °F
Feels Like 86 °F
N
14
Wind Variable Wind from North
Gusts 26 mph

Today
High -- | Low -- °F
--% Chance of Precip.
Yesterday
High -- | Low -- °F
Precip. -- in
5:53 AM 6:49 PM
Waning Gibbous, 95% visible
Pressure 30.01 in
Visibility -9999.0 miles
Clouds
Dew Point 14 °F
Humidity 7%
Rainfall 0.00 in
Snow Depth Not available.
UV Not available.
Pollen Not available.
Air Quality Not available.
Flu Activity Not available.
METAR OAHR 311155Z 01012G23KT 330V040 CAVOK 30/M10 Q1016 RMK SKC VIS MIN 9999 BLU
Pressure 30.01 in
Visibility -9999.0 miles
Clouds
Dew Point 14 °F
Humidity 7%
Rainfall 0.00 in
Snow Depth Not available.
UV Not available.
Pollen Not available.
Air Quality Not available.
Flu Activity Not available.
METAR OAHR 311155Z 01012G23KT 330V040 CAVOK 30/M10 Q1016 RMK SKC VIS MIN 9999 BLU

10-Day Weather Forecast

×

Almanac

Astronomy

Aug. 31, 2015 Rise Set
Actual Time
Civil Twilight
Nautical Twilight
Astronomical Twilight
Moon
Length of Visible Light
Length of Day
Tomorrow will be .
, % of the Moon is Illuminated

Today's Extremes

Country Highs Country Lows

Community

WunderPhotos

Upload Photos

1,851,222 photos uploaded!

WunderBlogs® & News

Nearby

Air Quality

  Air Quality AQ Index Pollutant
Not available.

Snow Depth

Station Depth Elevation

Earthquake Activity

City Distance Mag. Time & Date
Minimum magnitude displayed is 2.5.

Coastal Water Temperatures

Place Temperature

Stations

Nearby Weather Stations

Station Location Temp. Windchill Dew Point Humidity Wind Precip. Elev Updated Type